sensor_id;sensor_type;location;lat;lon;timestamp;pressure;altitude;pressure_sealevel;temperature
38114;BMP180;23926;53.222;6.354;2023-06-26T00:01:50;101114.00;;;25.30
38114;BMP180;23926;53.222;6.354;2023-06-26T00:04:15;101118.00;;;25.30
38114;BMP180;23926;53.222;6.354;2023-06-26T00:06:41;101114.00;;;25.30
38114;BMP180;23926;53.222;6.354;2023-06-26T00:09:07;101114.00;;;25.30
38114;BMP180;23926;53.222;6.354;2023-06-26T00:11:32;101106.00;;;25.30
38114;BMP180;23926;53.222;6.354;2023-06-26T00:14:01;101102.00;;;25.20
38114;BMP180;23926;53.222;6.354;2023-06-26T00:16:27;101104.00;;;25.10
38114;BMP180;23926;53.222;6.354;2023-06-26T00:18:53;101085.00;;;25.10
38114;BMP180;23926;53.222;6.354;2023-06-26T00:21:19;101079.00;;;25.10
38114;BMP180;23926;53.222;6.354;2023-06-26T00:23:45;101074.00;;;25.00
38114;BMP180;23926;53.222;6.354;2023-06-26T00:26:11;101087.00;;;25.00
38114;BMP180;23926;53.222;6.354;2023-06-26T00:28:37;101073.00;;;25.00
38114;BMP180;23926;53.222;6.354;2023-06-26T00:31:02;101065.00;;;24.90
38114;BMP180;23926;53.222;6.354;2023-06-26T00:33:28;101061.00;;;24.90
38114;BMP180;23926;53.222;6.354;2023-06-26T00:35:53;101072.00;;;24.80
38114;BMP180;23926;53.222;6.354;2023-06-26T00:38:18;101070.00;;;24.80
38114;BMP180;23926;53.222;6.354;2023-06-26T00:40:44;101068.00;;;24.70
38114;BMP180;23926;53.222;6.354;2023-06-26T00:43:09;101052.00;;;24.70
38114;BMP180;23926;53.222;6.354;2023-06-26T00:45:35;101048.00;;;24.60
38114;BMP180;23926;53.222;6.354;2023-06-26T00:48:01;101058.00;;;24.60
38114;BMP180;23926;53.222;6.354;2023-06-26T00:50:27;101046.00;;;24.50
38114;BMP180;23926;53.222;6.354;2023-06-26T00:52:53;101051.00;;;24.50
38114;BMP180;23926;53.222;6.354;2023-06-26T00:55:20;101036.00;;;24.40
38114;BMP180;23926;53.222;6.354;2023-06-26T00:57:45;101029.00;;;24.40
38114;BMP180;23926;53.222;6.354;2023-06-26T01:00:12;101025.00;;;24.40
38114;BMP180;23926;53.222;6.354;2023-06-26T01:02:38;101037.00;;;24.30
38114;BMP180;23926;53.222;6.354;2023-06-26T01:05:05;101022.00;;;24.30
38114;BMP180;23926;53.222;6.354;2023-06-26T01:07:32;101018.00;;;24.20
38114;BMP180;23926;53.222;6.354;2023-06-26T01:10:05;101015.00;;;24.20
38114;BMP180;23926;53.222;6.354;2023-06-26T01:12:31;101021.00;;;24.20
38114;BMP180;23926;53.222;6.354;2023-06-26T01:14:58;101022.00;;;24.20
38114;BMP180;23926;53.222;6.354;2023-06-26T01:17:24;101007.00;;;24.20
38114;BMP180;23926;53.222;6.354;2023-06-26T01:19:50;101009.00;;;24.20
38114;BMP180;23926;53.222;6.354;2023-06-26T01:22:27;101024.00;;;24.20
38114;BMP180;23926;53.222;6.354;2023-06-26T01:25:21;101021.00;;;24.20
38114;BMP180;23926;53.222;6.354;2023-06-26T01:27:48;101005.00;;;24.10
38114;BMP180;23926;53.222;6.354;2023-06-26T01:30:16;101010.00;;;24.10
38114;BMP180;23926;53.222;6.354;2023-06-26T01:32:43;100991.00;;;24.10
38114;BMP180;23926;53.222;6.354;2023-06-26T01:35:09;100995.00;;;24.10
38114;BMP180;23926;53.222;6.354;2023-06-26T01:37:36;100983.00;;;24.10
38114;BMP180;23926;53.222;6.354;2023-06-26T01:40:01;100989.00;;;24.10
38114;BMP180;23926;53.222;6.354;2023-06-26T01:42:27;100986.00;;;24.00
38114;BMP180;23926;53.222;6.354;2023-06-26T01:44:55;100989.00;;;24.00
38114;BMP180;23926;53.222;6.354;2023-06-26T01:47:22;100962.00;;;24.00
38114;BMP180;23926;53.222;6.354;2023-06-26T01:50:02;100983.00;;;24.00
38114;BMP180;23926;53.222;6.354;2023-06-26T01:52:39;100980.00;;;24.00
38114;BMP180;23926;53.222;6.354;2023-06-26T01:57:42;100995.00;;;24.10
38114;BMP180;23926;53.222;6.354;2023-06-26T02:00:09;101002.00;;;24.20
38114;BMP180;23926;53.222;6.354;2023-06-26T02:02:36;100989.00;;;24.30
38114;BMP180;23926;53.222;6.354;2023-06-26T02:05:02;100986.00;;;24.40
38114;BMP180;23926;53.222;6.354;2023-06-26T02:07:27;100989.00;;;24.50
38114;BMP180;23926;53.222;6.354;2023-06-26T02:09:53;100992.00;;;24.60
38114;BMP180;23926;53.222;6.354;2023-06-26T02:12:18;100995.00;;;24.60
38114;BMP180;23926;53.222;6.354;2023-06-26T02:14:44;100994.00;;;24.60
38114;BMP180;23926;53.222;6.354;2023-06-26T02:17:10;100992.00;;;24.60
38114;BMP180;23926;53.222;6.354;2023-06-26T02:19:35;100991.00;;;24.70
38114;BMP180;23926;53.222;6.354;2023-06-26T02:22:01;100992.00;;;24.70
38114;BMP180;23926;53.222;6.354;2023-06-26T02:24:26;100992.00;;;24.80
38114;BMP180;23926;53.222;6.354;2023-06-26T02:26:55;100994.00;;;24.80
38114;BMP180;23926;53.222;6.354;2023-06-26T02:29:21;100986.00;;;24.70
38114;BMP180;23926;53.222;6.354;2023-06-26T02:31:46;100937.00;;;24.70
38114;BMP180;23926;53.222;6.354;2023-06-26T02:34:12;100983.00;;;24.70
38114;BMP180;23926;53.222;6.354;2023-06-26T02:36:37;100972.00;;;24.70
38114;BMP180;23926;53.222;6.354;2023-06-26T02:39:02;100985.00;;;24.70
38114;BMP180;23926;53.222;6.354;2023-06-26T02:41:28;100971.00;;;24.70
38114;BMP180;23926;53.222;6.354;2023-06-26T02:43:53;100978.00;;;24.70
38114;BMP180;23926;53.222;6.354;2023-06-26T02:46:18;100971.00;;;24.60
38114;BMP180;23926;53.222;6.354;2023-06-26T02:48:44;100975.00;;;24.60
38114;BMP180;23926;53.222;6.354;2023-06-26T02:51:09;100973.00;;;24.60
38114;BMP180;23926;53.222;6.354;2023-06-26T02:53:35;100979.00;;;24.60
38114;BMP180;23926;53.222;6.354;2023-06-26T02:56:00;100975.00;;;24.60
38114;BMP180;23926;53.222;6.354;2023-06-26T02:58:26;100970.00;;;24.60
38114;BMP180;23926;53.222;6.354;2023-06-26T03:00:51;100972.00;;;24.60
38114;BMP180;23926;53.222;6.354;2023-06-26T03:03:18;100982.00;;;24.60
38114;BMP180;23926;53.222;6.354;2023-06-26T03:05:44;100985.00;;;24.50
38114;BMP180;23926;53.222;6.354;2023-06-26T03:08:10;100960.00;;;24.50
38114;BMP180;23926;53.222;6.354;2023-06-26T03:10:35;100986.00;;;24.40
38114;BMP180;23926;53.222;6.354;2023-06-26T03:13:00;100985.00;;;24.40
38114;BMP180;23926;53.222;6.354;2023-06-26T03:15:26;100963.00;;;24.30
38114;BMP180;23926;53.222;6.354;2023-06-26T03:17:51;100989.00;;;24.20
38114;BMP180;23926;53.222;6.354;2023-06-26T03:20:17;100990.00;;;24.20
38114;BMP180;23926;53.222;6.354;2023-06-26T03:22:42;100985.00;;;24.30
38114;BMP180;23926;53.222;6.354;2023-06-26T03:25:08;100986.00;;;24.40
38114;BMP180;23926;53.222;6.354;2023-06-26T03:27:33;100970.00;;;24.40
38114;BMP180;23926;53.222;6.354;2023-06-26T03:29:59;100980.00;;;24.40
38114;BMP180;23926;53.222;6.354;2023-06-26T03:32:24;100980.00;;;24.40
38114;BMP180;23926;53.222;6.354;2023-06-26T03:34:49;100980.00;;;24.50
38114;BMP180;23926;53.222;6.354;2023-06-26T03:37:15;100979.00;;;24.50
38114;BMP180;23926;53.222;6.354;2023-06-26T03:39:40;100962.00;;;24.60
38114;BMP180;23926;53.222;6.354;2023-06-26T03:42:06;100967.00;;;24.70
38114;BMP180;23926;53.222;6.354;2023-06-26T03:44:32;100987.00;;;24.80
38114;BMP180;23926;53.222;6.354;2023-06-26T03:46:57;100978.00;;;24.80
38114;BMP180;23926;53.222;6.354;2023-06-26T03:49:23;100983.00;;;24.90
38114;BMP180;23926;53.222;6.354;2023-06-26T03:51:48;100982.00;;;24.80
38114;BMP180;23926;53.222;6.354;2023-06-26T03:54:14;100988.00;;;24.90
38114;BMP180;23926;53.222;6.354;2023-06-26T03:56:39;100981.00;;;24.90
38114;BMP180;23926;53.222;6.354;2023-06-26T03:59:05;100986.00;;;24.90
38114;BMP180;23926;53.222;6.354;2023-06-26T04:01:30;100983.00;;;25.00
38114;BMP180;23926;53.222;6.354;2023-06-26T04:03:55;100988.00;;;25.00
38114;BMP180;23926;53.222;6.354;2023-06-26T04:06:21;100986.00;;;25.00
38114;BMP180;23926;53.222;6.354;2023-06-26T04:08:46;101002.00;;;25.10
38114;BMP180;23926;53.222;6.354;2023-06-26T04:11:13;101003.00;;;25.20
38114;BMP180;23926;53.222;6.354;2023-06-26T04:13:38;101000.00;;;25.20
38114;BMP180;23926;53.222;6.354;2023-06-26T04:16:04;101006.00;;;25.40
38114;BMP180;23926;53.222;6.354;2023-06-26T04:18:29;101006.00;;;25.30
38114;BMP180;23926;53.222;6.354;2023-06-26T04:21:11;101022.00;;;25.30
38114;BMP180;23926;53.222;6.354;2023-06-26T04:23:40;101020.00;;;25.10
38114;BMP180;23926;53.222;6.354;2023-06-26T04:26:06;101016.00;;;25.10
38114;BMP180;23926;53.222;6.354;2023-06-26T04:28:33;100999.00;;;25.00
38114;BMP180;23926;53.222;6.354;2023-06-26T04:30:59;101012.00;;;25.10
38114;BMP180;23926;53.222;6.354;2023-06-26T04:33:25;101010.00;;;25.00
38114;BMP180;23926;53.222;6.354;2023-06-26T04:35:51;101001.00;;;25.10
38114;BMP180;23926;53.222;6.354;2023-06-26T04:38:17;100996.00;;;25.00
38114;BMP180;23926;53.222;6.354;2023-06-26T04:40:43;101011.00;;;25.20
38114;BMP180;23926;53.222;6.354;2023-06-26T04:43:08;101014.00;;;25.00
38114;BMP180;23926;53.222;6.354;2023-06-26T04:45:34;101032.00;;;24.90
38114;BMP180;23926;53.222;6.354;2023-06-26T04:47:59;101047.00;;;24.80
38114;BMP180;23926;53.222;6.354;2023-06-26T04:50:25;101045.00;;;24.70
38114;BMP180;23926;53.222;6.354;2023-06-26T04:52:51;101026.00;;;24.60
38114;BMP180;23926;53.222;6.354;2023-06-26T04:55:16;101024.00;;;24.60
38114;BMP180;23926;53.222;6.354;2023-06-26T04:57:42;101045.00;;;24.60
38114;BMP180;23926;53.222;6.354;2023-06-26T05:00:07;101071.00;;;24.60
38114;BMP180;23926;53.222;6.354;2023-06-26T05:02:36;101070.00;;;24.50
38114;BMP180;23926;53.222;6.354;2023-06-26T05:05:01;101085.00;;;24.30
38114;BMP180;23926;53.222;6.354;2023-06-26T05:07:27;101093.00;;;24.10
38114;BMP180;23926;53.222;6.354;2023-06-26T05:09:52;101085.00;;;24.10
38114;BMP180;23926;53.222;6.354;2023-06-26T05:12:18;101102.00;;;23.80
38114;BMP180;23926;53.222;6.354;2023-06-26T05:14:43;101079.00;;;24.00
38114;BMP180;23926;53.222;6.354;2023-06-26T05:17:09;101087.00;;;24.10
38114;BMP180;23926;53.222;6.354;2023-06-26T05:19:34;101080.00;;;24.10
38114;BMP180;23926;53.222;6.354;2023-06-26T05:22:00;101088.00;;;23.80
38114;BMP180;23926;53.222;6.354;2023-06-26T05:24:30;101054.00;;;23.80
38114;BMP180;23926;53.222;6.354;2023-06-26T05:26:56;101083.00;;;23.50
38114;BMP180;23926;53.222;6.354;2023-06-26T05:29:21;101094.00;;;23.50
38114;BMP180;23926;53.222;6.354;2023-06-26T05:31:48;101085.00;;;23.40
38114;BMP180;23926;53.222;6.354;2023-06-26T05:34:15;101099.00;;;23.30
38114;BMP180;23926;53.222;6.354;2023-06-26T05:36:41;101100.00;;;23.40
38114;BMP180;23926;53.222;6.354;2023-06-26T05:39:08;101112.00;;;23.30
38114;BMP180;23926;53.222;6.354;2023-06-26T05:41:34;101116.00;;;23.40
38114;BMP180;23926;53.222;6.354;2023-06-26T05:44:00;101129.00;;;23.30
38114;BMP180;23926;53.222;6.354;2023-06-26T05:46:25;101125.00;;;23.30
38114;BMP180;23926;53.222;6.354;2023-06-26T05:48:50;101119.00;;;23.10
38114;BMP180;23926;53.222;6.354;2023-06-26T05:51:16;101121.00;;;23.00
38114;BMP180;23926;53.222;6.354;2023-06-26T05:53:42;101137.00;;;22.80
38114;BMP180;23926;53.222;6.354;2023-06-26T05:56:08;101137.00;;;22.80
38114;BMP180;23926;53.222;6.354;2023-06-26T05:58:34;101138.00;;;23.00
38114;BMP180;23926;53.222;6.354;2023-06-26T06:00:59;101147.00;;;23.10
38114;BMP180;23926;53.222;6.354;2023-06-26T06:03:25;101151.00;;;23.10
38114;BMP180;23926;53.222;6.354;2023-06-26T06:05:51;101147.00;;;23.10
38114;BMP180;23926;53.222;6.354;2023-06-26T06:08:16;101169.00;;;23.10
38114;BMP180;23926;53.222;6.354;2023-06-26T06:10:42;101164.00;;;23.20
38114;BMP180;23926;53.222;6.354;2023-06-26T06:13:07;101151.00;;;23.20
38114;BMP180;23926;53.222;6.354;2023-06-26T06:15:33;101160.00;;;23.40
38114;BMP180;23926;53.222;6.354;2023-06-26T06:17:58;101171.00;;;23.50
38114;BMP180;23926;53.222;6.354;2023-06-26T06:20:24;101164.00;;;23.40
38114;BMP180;23926;53.222;6.354;2023-06-26T06:22:50;101166.00;;;23.50
38114;BMP180;23926;53.222;6.354;2023-06-26T06:25:15;101179.00;;;23.40
38114;BMP180;23926;53.222;6.354;2023-06-26T06:27:41;101181.00;;;23.60
38114;BMP180;23926;53.222;6.354;2023-06-26T06:30:07;101193.00;;;23.60
38114;BMP180;23926;53.222;6.354;2023-06-26T06:32:33;101182.00;;;23.50
38114;BMP180;23926;53.222;6.354;2023-06-26T06:34:59;101195.00;;;23.60
38114;BMP180;23926;53.222;6.354;2023-06-26T06:37:24;101201.00;;;23.70
38114;BMP180;23926;53.222;6.354;2023-06-26T06:39:50;101203.00;;;23.60
38114;BMP180;23926;53.222;6.354;2023-06-26T06:42:15;101217.00;;;23.70
38114;BMP180;23926;53.222;6.354;2023-06-26T06:44:40;101221.00;;;23.90
38114;BMP180;23926;53.222;6.354;2023-06-26T06:47:06;101232.00;;;24.00
38114;BMP180;23926;53.222;6.354;2023-06-26T06:49:31;101223.00;;;23.90
38114;BMP180;23926;53.222;6.354;2023-06-26T06:51:57;101230.00;;;23.80
38114;BMP180;23926;53.222;6.354;2023-06-26T06:54:25;101248.00;;;23.80
38114;BMP180;23926;53.222;6.354;2023-06-26T06:56:51;101238.00;;;24.10
38114;BMP180;23926;53.222;6.354;2023-06-26T06:59:17;101261.00;;;24.20
38114;BMP180;23926;53.222;6.354;2023-06-26T07:01:42;101267.00;;;24.20
38114;BMP180;23926;53.222;6.354;2023-06-26T07:04:08;101245.00;;;24.10
38114;BMP180;23926;53.222;6.354;2023-06-26T07:06:33;101251.00;;;24.00
38114;BMP180;23926;53.222;6.354;2023-06-26T07:08:59;101245.00;;;24.10
38114;BMP180;23926;53.222;6.354;2023-06-26T07:11:24;101261.00;;;24.00
38114;BMP180;23926;53.222;6.354;2023-06-26T07:13:50;101277.00;;;24.20
38114;BMP180;23926;53.222;6.354;2023-06-26T07:16:15;101277.00;;;24.10
38114;BMP180;23926;53.222;6.354;2023-06-26T07:18:41;101273.00;;;24.00
38114;BMP180;23926;53.222;6.354;2023-06-26T07:21:07;101275.00;;;24.30
38114;BMP180;23926;53.222;6.354;2023-06-26T07:23:32;101285.00;;;24.20
38114;BMP180;23926;53.222;6.354;2023-06-26T07:25:58;101293.00;;;24.30
38114;BMP180;23926;53.222;6.354;2023-06-26T07:28:24;101286.00;;;24.40
38114;BMP180;23926;53.222;6.354;2023-06-26T07:30:49;101281.00;;;24.40
38114;BMP180;23926;53.222;6.354;2023-06-26T07:33:15;101294.00;;;24.30
38114;BMP180;23926;53.222;6.354;2023-06-26T07:35:40;101306.00;;;24.40
38114;BMP180;23926;53.222;6.354;2023-06-26T07:38:06;101306.00;;;24.70
38114;BMP180;23926;53.222;6.354;2023-06-26T07:40:31;101317.00;;;24.80
38114;BMP180;23926;53.222;6.354;2023-06-26T07:42:56;101323.00;;;24.70
38114;BMP180;23926;53.222;6.354;2023-06-26T07:45:23;101310.00;;;24.60
38114;BMP180;23926;53.222;6.354;2023-06-26T07:47:48;101304.00;;;24.70
38114;BMP180;23926;53.222;6.354;2023-06-26T07:50:14;101315.00;;;24.70
38114;BMP180;23926;53.222;6.354;2023-06-26T07:52:44;101318.00;;;24.70
38114;BMP180;23926;53.222;6.354;2023-06-26T07:55:10;101328.00;;;24.40
38114;BMP180;23926;53.222;6.354;2023-06-26T07:57:35;101329.00;;;24.00
38114;BMP180;23926;53.222;6.354;2023-06-26T08:00:01;101325.00;;;24.30
38114;BMP180;23926;53.222;6.354;2023-06-26T08:02:29;101328.00;;;24.90
38114;BMP180;23926;53.222;6.354;2023-06-26T08:04:55;101336.00;;;25.10
38114;BMP180;23926;53.222;6.354;2023-06-26T08:07:21;101327.00;;;25.00
38114;BMP180;23926;53.222;6.354;2023-06-26T08:09:46;101323.00;;;24.90
38114;BMP180;23926;53.222;6.354;2023-06-26T08:12:11;101324.00;;;24.70
38114;BMP180;23926;53.222;6.354;2023-06-26T08:14:37;101349.00;;;25.00
38114;BMP180;23926;53.222;6.354;2023-06-26T08:17:02;101342.00;;;25.10
38114;BMP180;23926;53.222;6.354;2023-06-26T08:19:28;101327.00;;;25.00
38114;BMP180;23926;53.222;6.354;2023-06-26T08:21:53;101341.00;;;24.90
38114;BMP180;23926;53.222;6.354;2023-06-26T08:24:19;101337.00;;;25.00
38114;BMP180;23926;53.222;6.354;2023-06-26T08:26:45;101352.00;;;25.20
38114;BMP180;23926;53.222;6.354;2023-06-26T08:29:11;101361.00;;;25.20
38114;BMP180;23926;53.222;6.354;2023-06-26T08:31:37;101359.00;;;25.10
38114;BMP180;23926;53.222;6.354;2023-06-26T08:34:04;101368.00;;;25.20
38114;BMP180;23926;53.222;6.354;2023-06-26T08:36:30;101374.00;;;24.90
38114;BMP180;23926;53.222;6.354;2023-06-26T08:38:56;101368.00;;;25.00
38114;BMP180;23926;53.222;6.354;2023-06-26T08:41:22;101362.00;;;25.20
38114;BMP180;23926;53.222;6.354;2023-06-26T08:43:47;101383.00;;;25.50
38114;BMP180;23926;53.222;6.354;2023-06-26T08:46:14;101376.00;;;25.60
38114;BMP180;23926;53.222;6.354;2023-06-26T08:48:42;101384.00;;;25.30
38114;BMP180;23926;53.222;6.354;2023-06-26T08:51:12;101390.00;;;25.20
38114;BMP180;23926;53.222;6.354;2023-06-26T08:54:00;101386.00;;;25.20
38114;BMP180;23926;53.222;6.354;2023-06-26T08:56:32;101388.00;;;24.90
38114;BMP180;23926;53.222;6.354;2023-06-26T08:58:57;101394.00;;;25.20
38114;BMP180;23926;53.222;6.354;2023-06-26T09:01:24;101397.00;;;25.40
38114;BMP180;23926;53.222;6.354;2023-06-26T09:03:50;101390.00;;;25.60
38114;BMP180;23926;53.222;6.354;2023-06-26T09:06:16;101397.00;;;25.80
38114;BMP180;23926;53.222;6.354;2023-06-26T09:08:43;101403.00;;;25.60
38114;BMP180;23926;53.222;6.354;2023-06-26T09:11:08;101401.00;;;25.40
38114;BMP180;23926;53.222;6.354;2023-06-26T09:13:34;101401.00;;;25.40
38114;BMP180;23926;53.222;6.354;2023-06-26T09:16:05;101408.00;;;25.50
38114;BMP180;23926;53.222;6.354;2023-06-26T09:18:32;101407.00;;;25.40
38114;BMP180;23926;53.222;6.354;2023-06-26T09:20:58;101427.00;;;25.60
38114;BMP180;23926;53.222;6.354;2023-06-26T09:23:23;101432.00;;;25.90
38114;BMP180;23926;53.222;6.354;2023-06-26T09:25:51;101425.00;;;26.40
38114;BMP180;23926;53.222;6.354;2023-06-26T09:28:17;101429.00;;;26.30
38114;BMP180;23926;53.222;6.354;2023-06-26T09:30:44;101430.00;;;26.20
38114;BMP180;23926;53.222;6.354;2023-06-26T09:33:15;101424.00;;;26.10
38114;BMP180;23926;53.222;6.354;2023-06-26T09:35:41;101437.00;;;26.00
38114;BMP180;23926;53.222;6.354;2023-06-26T09:38:07;101434.00;;;26.10
38114;BMP180;23926;53.222;6.354;2023-06-26T09:40:32;101443.00;;;25.90
38114;BMP180;23926;53.222;6.354;2023-06-26T09:43:05;101439.00;;;25.90
38114;BMP180;23926;53.222;6.354;2023-06-26T09:45:33;101435.00;;;26.10
38114;BMP180;23926;53.222;6.354;2023-06-26T09:48:00;101431.00;;;26.40
38114;BMP180;23926;53.222;6.354;2023-06-26T09:50:28;101438.00;;;26.30
38114;BMP180;23926;53.222;6.354;2023-06-26T09:52:53;101447.00;;;26.60
38114;BMP180;23926;53.222;6.354;2023-06-26T09:55:19;101457.00;;;26.70
38114;BMP180;23926;53.222;6.354;2023-06-26T09:57:46;101458.00;;;26.50
38114;BMP180;23926;53.222;6.354;2023-06-26T10:00:13;101460.00;;;26.30
38114;BMP180;23926;53.222;6.354;2023-06-26T10:02:38;101448.00;;;26.20
38114;BMP180;23926;53.222;6.354;2023-06-26T10:05:04;101451.00;;;26.10
38114;BMP180;23926;53.222;6.354;2023-06-26T10:07:30;101458.00;;;26.30
38114;BMP180;23926;53.222;6.354;2023-06-26T10:09:56;101452.00;;;26.60
38114;BMP180;23926;53.222;6.354;2023-06-26T10:12:27;101460.00;;;26.40
38114;BMP180;23926;53.222;6.354;2023-06-26T10:14:55;101459.00;;;26.00
38114;BMP180;23926;53.222;6.354;2023-06-26T10:17:21;101465.00;;;25.70
38114;BMP180;23926;53.222;6.354;2023-06-26T10:19:47;101473.00;;;25.60
38114;BMP180;23926;53.222;6.354;2023-06-26T10:22:17;101470.00;;;25.40
38114;BMP180;23926;53.222;6.354;2023-06-26T10:24:43;101452.00;;;25.50
38114;BMP180;23926;53.222;6.354;2023-06-26T10:27:20;101478.00;;;25.90
38114;BMP180;23926;53.222;6.354;2023-06-26T10:29:52;101472.00;;;26.20
38114;BMP180;23926;53.222;6.354;2023-06-26T10:32:20;101483.00;;;25.80
38114;BMP180;23926;53.222;6.354;2023-06-26T10:34:46;101490.00;;;25.50
38114;BMP180;23926;53.222;6.354;2023-06-26T10:37:12;101493.00;;;25.60
38114;BMP180;23926;53.222;6.354;2023-06-26T10:39:52;101492.00;;;26.00
38114;BMP180;23926;53.222;6.354;2023-06-26T10:42:34;101491.00;;;26.10
38114;BMP180;23926;53.222;6.354;2023-06-26T10:45:09;101491.00;;;26.10
38114;BMP180;23926;53.222;6.354;2023-06-26T10:47:36;101508.00;;;26.10
38114;BMP180;23926;53.222;6.354;2023-06-26T10:50:17;101504.00;;;26.10
38114;BMP180;23926;53.222;6.354;2023-06-26T10:52:44;101514.00;;;26.10
38114;BMP180;23926;53.222;6.354;2023-06-26T10:55:09;101525.00;;;25.90
38114;BMP180;23926;53.222;6.354;2023-06-26T10:57:38;101523.00;;;26.00
38114;BMP180;23926;53.222;6.354;2023-06-26T11:00:14;101526.00;;;25.50
38114;BMP180;23926;53.222;6.354;2023-06-26T11:02:52;101516.00;;;25.40
38114;BMP180;23926;53.222;6.354;2023-06-26T11:05:26;101520.00;;;25.40
38114;BMP180;23926;53.222;6.354;2023-06-26T11:08:08;101528.00;;;25.40
38114;BMP180;23926;53.222;6.354;2023-06-26T11:10:53;101504.00;;;25.90
38114;BMP180;23926;53.222;6.354;2023-06-26T11:13:21;101535.00;;;25.70
38114;BMP180;23926;53.222;6.354;2023-06-26T11:15:47;101547.00;;;25.60
38114;BMP180;23926;53.222;6.354;2023-06-26T11:18:13;101551.00;;;26.00
38114;BMP180;23926;53.222;6.354;2023-06-26T11:20:40;101551.00;;;26.40
38114;BMP180;23926;53.222;6.354;2023-06-26T11:23:07;101550.00;;;26.30
38114;BMP180;23926;53.222;6.354;2023-06-26T11:25:35;101552.00;;;26.20
38114;BMP180;23926;53.222;6.354;2023-06-26T11:28:00;101550.00;;;26.10
38114;BMP180;23926;53.222;6.354;2023-06-26T11:30:26;101549.00;;;25.90
38114;BMP180;23926;53.222;6.354;2023-06-26T11:32:52;101553.00;;;25.80
38114;BMP180;23926;53.222;6.354;2023-06-26T11:35:27;101537.00;;;25.60
38114;BMP180;23926;53.222;6.354;2023-06-26T11:37:59;101534.00;;;26.00
38114;BMP180;23926;53.222;6.354;2023-06-26T11:40:29;101548.00;;;26.20
38114;BMP180;23926;53.222;6.354;2023-06-26T11:43:00;101552.00;;;26.00
38114;BMP180;23926;53.222;6.354;2023-06-26T11:45:31;101559.00;;;25.90
38114;BMP180;23926;53.222;6.354;2023-06-26T11:47:57;101544.00;;;26.10
38114;BMP180;23926;53.222;6.354;2023-06-26T11:50:24;101561.00;;;26.00
38114;BMP180;23926;53.222;6.354;2023-06-26T11:52:57;101572.00;;;25.70
38114;BMP180;23926;53.222;6.354;2023-06-26T11:55:23;101571.00;;;25.60
38114;BMP180;23926;53.222;6.354;2023-06-26T11:57:56;101592.00;;;25.40
38114;BMP180;23926;53.222;6.354;2023-06-26T12:00:22;101566.00;;;25.60
38114;BMP180;23926;53.222;6.354;2023-06-26T12:02:48;101579.00;;;26.20
38114;BMP180;23926;53.222;6.354;2023-06-26T12:05:15;101594.00;;;26.00
38114;BMP180;23926;53.222;6.354;2023-06-26T12:07:43;101595.00;;;26.00
38114;BMP180;23926;53.222;6.354;2023-06-26T12:10:13;101612.00;;;26.20
38114;BMP180;23926;53.222;6.354;2023-06-26T12:12:39;101614.00;;;25.90
38114;BMP180;23926;53.222;6.354;2023-06-26T12:15:06;101614.00;;;26.10
38114;BMP180;23926;53.222;6.354;2023-06-26T12:17:32;101608.00;;;25.80
38114;BMP180;23926;53.222;6.354;2023-06-26T12:19:58;101598.00;;;25.60
38114;BMP180;23926;53.222;6.354;2023-06-26T12:22:23;101618.00;;;25.70
38114;BMP180;23926;53.222;6.354;2023-06-26T12:24:49;101608.00;;;25.30
38114;BMP180;23926;53.222;6.354;2023-06-26T12:27:17;101609.00;;;25.10
38114;BMP180;23926;53.222;6.354;2023-06-26T12:29:50;101616.00;;;25.20
38114;BMP180;23926;53.222;6.354;2023-06-26T12:32:16;101621.00;;;25.10
38114;BMP180;23926;53.222;6.354;2023-06-26T12:34:41;101612.00;;;25.40
38114;BMP180;23926;53.222;6.354;2023-06-26T12:37:11;101612.00;;;25.40
38114;BMP180;23926;53.222;6.354;2023-06-26T12:42:16;101627.00;;;25.40
38114;BMP180;23926;53.222;6.354;2023-06-26T12:44:43;101644.00;;;25.30
38114;BMP180;23926;53.222;6.354;2023-06-26T12:47:08;101637.00;;;25.50
38114;BMP180;23926;53.222;6.354;2023-06-26T12:49:37;101641.00;;;25.70
38114;BMP180;23926;53.222;6.354;2023-06-26T12:52:13;101638.00;;;25.80
38114;BMP180;23926;53.222;6.354;2023-06-26T12:54:40;101651.00;;;25.80
38114;BMP180;23926;53.222;6.354;2023-06-26T12:57:06;101652.00;;;26.10
38114;BMP180;23926;53.222;6.354;2023-06-26T12:59:33;101640.00;;;26.00
38114;BMP180;23926;53.222;6.354;2023-06-26T13:01:59;101648.00;;;26.30
38114;BMP180;23926;53.222;6.354;2023-06-26T13:04:25;101657.00;;;26.20
38114;BMP180;23926;53.222;6.354;2023-06-26T13:06:51;101647.00;;;26.20
38114;BMP180;23926;53.222;6.354;2023-06-26T13:09:17;101643.00;;;25.90
38114;BMP180;23926;53.222;6.354;2023-06-26T13:11:43;101640.00;;;25.90
38114;BMP180;23926;53.222;6.354;2023-06-26T13:14:08;101642.00;;;25.80
38114;BMP180;23926;53.222;6.354;2023-06-26T13:16:34;101642.00;;;25.80
38114;BMP180;23926;53.222;6.354;2023-06-26T13:19:00;101645.00;;;25.90
38114;BMP180;23926;53.222;6.354;2023-06-26T13:21:27;101648.00;;;25.90
38114;BMP180;23926;53.222;6.354;2023-06-26T13:23:53;101643.00;;;25.90
38114;BMP180;23926;53.222;6.354;2023-06-26T13:26:19;101650.00;;;26.20
38114;BMP180;23926;53.222;6.354;2023-06-26T13:28:45;101644.00;;;25.80
38114;BMP180;23926;53.222;6.354;2023-06-26T13:31:10;101652.00;;;26.10
38114;BMP180;23926;53.222;6.354;2023-06-26T13:33:36;101654.00;;;26.10
38114;BMP180;23926;53.222;6.354;2023-06-26T13:36:01;101658.00;;;26.20
38114;BMP180;23926;53.222;6.354;2023-06-26T13:38:32;101662.00;;;26.50
38114;BMP180;23926;53.222;6.354;2023-06-26T13:40:58;101672.00;;;27.00
38114;BMP180;23926;53.222;6.354;2023-06-26T13:43:26;101671.00;;;26.80
38114;BMP180;23926;53.222;6.354;2023-06-26T13:45:51;101663.00;;;26.70
38114;BMP180;23926;53.222;6.354;2023-06-26T13:48:17;101673.00;;;26.30
38114;BMP180;23926;53.222;6.354;2023-06-26T13:50:42;101664.00;;;26.30
38114;BMP180;23926;53.222;6.354;2023-06-26T13:53:08;101667.00;;;26.20
38114;BMP180;23926;53.222;6.354;2023-06-26T13:55:34;101653.00;;;26.30
38114;BMP180;23926;53.222;6.354;2023-06-26T13:58:00;101660.00;;;26.20
38114;BMP180;23926;53.222;6.354;2023-06-26T14:00:29;101658.00;;;26.00